| time (UTC) | temp F | wind direction | speed MPH | gust MPH | rain 1hr in | rain 24hr in | rain mn in | humidity % | barometer mb |
| 20260906141104 | 68 | 46 | 1.0 | 2.0 | 0.00 | 0.12 | 0.12 | 89 | 1013.3 |
| 20260906140604 | 69 | 46 | 1.0 | 2.0 | 0.00 | 0.12 | 0.12 | 89 | 1013.2 |
| 20260906140105 | 69 | 46 | 1.0 | 2.0 | 0.00 | 0.12 | 0.12 | 89 | 1013.0 |
| 20260906135604 | 69 | 46 | 0.0 | 2.0 | 0.00 | 0.12 | 0.12 | 89 | 1012.8 |
| 20260906135104 | 69 | 46 | 0.0 | 3.0 | 0.00 | 0.12 | 0.12 | 89 | 1012.7 |
| 20260906134604 | 68 | 46 | 0.0 | 3.0 | 0.00 | 0.12 | 0.12 | 88 | 1012.7 |
| 20260906134104 | 68 | 46 | 1.0 | 3.0 | 0.00 | 0.12 | 0.12 | 88 | 1012.4 |
| 20260906133604 | 69 | 46 | 0.0 | 3.0 | 0.01 | 0.12 | 0.12 | 88 | 1012.2 |
| 20260906133104 | 69 | 46 | 1.0 | 3.0 | 0.01 | 0.12 | 0.12 | 88 | 1012.2 |
| 20260906132604 | 69 | 46 | 0.0 | 3.0 | 0.01 | 0.12 | 0.12 | 88 | 1012.2 |
| 20260906132104 | 69 | 46 | 0.0 | 2.0 | 0.02 | 0.12 | 0.12 | 87 | 1011.9 |
| 20260906131604 | 69 | 46 | 0.0 | 2.0 | 0.02 | 0.12 | 0.12 | 87 | 1011.7 |
| 20260906131107 | 69 | 46 | 0.0 | 2.0 | 0.02 | 0.12 | 0.12 | 87 | 1011.7 |
| 20260906130108 | 69 | 46 | 1.0 | 2.0 | 0.02 | 0.12 | 0.12 | 86 | 1011.8 |
| 20260906125604 | 69 | 46 | 0.0 | 3.0 | 0.02 | 0.12 | 0.12 | 86 | 1011.8 |
| 20260906125104 | 69 | 46 | 2.0 | 3.0 | 0.02 | 0.12 | 0.12 | 86 | 1011.7 |
| 20260906124605 | 69 | 45 | 1.0 | 3.0 | 0.03 | 0.12 | 0.12 | 87 | 1011.9 |
| 20260906124104 | 69 | 46 | 1.0 | 5.0 | 0.03 | 0.12 | 0.12 | 87 | 1012.1 |
| 20260906123604 | 69 | 46 | 1.0 | 5.0 | 0.02 | 0.11 | 0.11 | 87 | 1012.0 |
| 20260906123104 | 69 | 69 | 0.0 | 2.0 | 0.02 | 0.11 | 0.11 | 87 | 1012.0 |
| 20260906122104 | 69 | 69 | 0.0 | 3.0 | 0.02 | 0.10 | 0.10 | 86 | 1012.3 |
| 20260906121604 | 68 | 69 | 0.0 | 3.0 | 0.02 | 0.10 | 0.10 | 86 | 1012.3 |
| 20260906121104 | 68 | 68 | 1.0 | 3.0 | 0.03 | 0.10 | 0.10 | 86 | 1012.3 |
| 20260906120604 | 68 | 69 | 1.0 | 3.0 | 0.04 | 0.10 | 0.10 | 86 | 1012.3 |
| 20260906120104 | 68 | 77 | 1.0 | 3.0 | 0.06 | 0.10 | 0.10 | 86 | 1012.3 |
| 20260906115604 | 68 | 77 | 0.0 | 3.0 | 0.07 | 0.10 | 0.10 | 85 | 1012.3 |
| 20260906115104 | 68 | 74 | 0.0 | 3.0 | 0.09 | 0.10 | 0.10 | 85 | 1012.5 |
| 20260906114604 | 68 | 78 | 0.0 | 3.0 | 0.09 | 0.09 | 0.09 | 85 | 1012.7 |
| 20260906114104 | 69 | 78 | 0.0 | 3.0 | 0.09 | 0.09 | 0.09 | 84 | 1012.7 |
| 20260906113604 | 69 | 73 | 0.0 | 3.0 | 0.09 | 0.09 | 0.09 | 83 | 1012.8 |
| 20260906113104 | 69 | 73 | 2.0 | 3.0 | 0.09 | 0.09 | 0.09 | 82 | 1012.7 |
| 20260906112605 | 69 | 69 | 1.0 | 3.0 | 0.09 | 0.09 | 0.09 | 80 | 1012.8 |
| 20260906112104 | 69 | 68 | 1.0 | 3.0 | 0.08 | 0.08 | 0.08 | 79 | 1012.8 |
| 20260906111604 | 70 | 65 | 1.0 | 3.0 | 0.08 | 0.08 | 0.08 | 77 | 1012.9 |
| 20260906111106 | 70 | 119 | 0.0 | 2.0 | 0.07 | 0.07 | 0.07 | 76 | 1013.1 |
| 20260906110604 | 71 | 194 | 0.0 | 2.0 | 0.06 | 0.06 | 0.06 | 75 | 1013.1 |
| 20260906110110 | 72 | 194 | 1.0 | 3.0 | 0.05 | 0.05 | 0.05 | 73 | 1013.2 |
| 20260906105604 | 72 | 194 | 1.0 | 3.0 | 0.03 | 0.03 | 0.03 | 69 | 1013.2 |
| 20260906105104 | 73 | 194 | 1.0 | 3.0 | 0.01 | 0.01 | 0.01 | 67 | 1013.0 |
| 20260906104604 | 73 | 194 | 1.0 | 2.0 | 0.00 | 0.00 | 0.00 | 65 | 1013.0 |
| 20260906104104 | 73 | 194 | 0.0 | 1.0 | 0.00 | 0.00 | 0.00 | 64 | 1012.9 |
| 20260906103104 | 73 | 194 | 0.0 | 3.0 | 0.00 | 0.00 | 0.00 | 62 | 1012.5 |
| 20260906102604 | 73 | 198 | 1.0 | 3.0 | 0.00 | 0.00 | 0.00 | 62 | 1012.4 |
| 20260906102104 | 73 | 271 | 0.0 | 2.0 | 0.00 | 0.00 | 0.00 | 62 | 1012.4 |
| 20260906101605 | 73 | 271 | 1.0 | 1.0 | 0.00 | 0.00 | 0.00 | 61 | 1012.4 |
| 20260906100604 | 73 | 271 | 0.0 | 2.0 | 0.00 | 0.00 | 0.00 | 57 | 1012.5 |
| 20260906100104 | 73 | 271 | 1.0 | 2.0 | 0.00 | 0.00 | 0.00 | 58 | 1012.5 |
| 20260906095604 | 73 | 271 | 0.0 | 1.0 | 0.00 | 0.00 | 0.00 | 57 | 1012.6 |
| 20260906095103 | 73 | 271 | 0.0 | 1.0 | 0.00 | 0.00 | 0.00 | 57 | 1012.6 |
| 20260906094604 | 74 | 271 | 0.0 | 1.0 | 0.00 | 0.00 | 0.00 | 57 | 1012.6 |
| 20260906094104 | 74 | 271 | 0.0 | 1.0 | 0.00 | 0.00 | 0.00 | 56 | 1012.6 |
| 20260906093603 | 75 | 271 | 0.0 | 1.0 | 0.00 | 0.00 | 0.00 | 55 | 1012.5 |
| 20260906093103 | 75 | 271 | 0.0 | 1.0 | 0.00 | 0.00 | 0.00 | 49 | 1012.5 |
| 20260906092604 | 75 | 271 | 0.0 | 1.0 | 0.00 | 0.00 | 0.00 | 49 | 1012.6 |
| 20260906092103 | 75 | 271 | 0.0 | 1.0 | 0.00 | 0.00 | 0.00 | 47 | 1012.7 |
| 20260906091605 | 75 | 271 | 0.0 | 1.0 | 0.00 | 0.00 | 0.00 | 47 | 1012.7 |
| 20260906091105 | 75 | 271 | 0.0 | 1.0 | 0.00 | 0.00 | 0.00 | 47 | 1012.8 |
| 20260906090604 | 75 | 271 | 0.0 | 0.0 | 0.00 | 0.00 | 0.00 | 46 | 1012.9 |
| 20260906090108 | 76 | 271 | 0.0 | 1.0 | 0.00 | 0.00 | 0.00 | 45 | 1013.0 |
| 20260906084603 | 76 | 271 | 0.0 | 1.0 | 0.00 | 0.00 | 0.00 | 44 | 1013.0 |
| 20260906083604 | 76 | 271 | 0.0 | 0.0 | 0.00 | 0.00 | 0.00 | 44 | 1013.2 |
| 20260906083103 | 76 | 271 | 0.0 | 1.0 | 0.00 | 0.00 | 0.00 | 45 | 1013.2 |
| 20260906082604 | 76 | 271 | 0.0 | 2.0 | 0.00 | 0.00 | 0.00 | 45 | 1013.2 |
| 20260906082104 | 76 | 271 | 1.0 | 2.0 | 0.00 | 0.00 | 0.00 | 45 | 1013.2 |
| 20260906081604 | 76 | 271 | 0.0 | 0.0 | 0.00 | 0.00 | 0.00 | 43 | 1013.2 |
| 20260906081104 | 76 | 271 | 0.0 | 0.0 | 0.00 | 0.00 | 0.00 | 44 | 1013.2 |
| 20260906080604 | 76 | 271 | 0.0 | 0.0 | 0.00 | 0.00 | 0.00 | 46 | 1013.2 |
| 20260906080113 | 76 | 271 | 0.0 | 0.0 | 0.00 | 0.00 | 0.00 | 46 | 1013.1 |
| 20260906075604 | 76 | 271 | 0.0 | 0.0 | 0.00 | 0.00 | 0.00 | 45 | 1013.2 |
| 20260906075104 | 76 | 271 | 0.0 | 0.0 | 0.00 | 0.00 | 0.00 | 44 | 1013.1 |
| 20260906074604 | 76 | 271 | 0.0 | 2.0 | 0.00 | 0.00 | 0.00 | 44 | 1013.1 |
| 20260906074104 | 76 | 271 | 0.0 | 2.0 | 0.00 | 0.00 | 0.00 | 44 | 1013.2 |
| 20260906073603 | 76 | 271 | 1.0 | 2.0 | 0.00 | 0.00 | 0.00 | 43 | 1013.2 |
| 20260906073104 | 76 | 271 | 0.0 | 0.0 | 0.00 | 0.00 | 0.00 | 43 | 1013.1 |
| 20260906072104 | 76 | 271 | 0.0 | 2.0 | 0.00 | 0.00 | 0.00 | 43 | 1013.0 |
| 20260906071603 | 76 | 271 | 0.0 | 2.0 | 0.00 | 0.00 | 0.00 | 43 | 1013.0 |
| 20260906070604 | 77 | 271 | 0.0 | 1.0 | 0.00 | 0.00 | 0.00 | 42 | 1013.0 |
| 20260906070108 | 77 | 271 | 0.0 | 1.0 | 0.00 | 0.00 | 0.00 | 42 | 1013.1 |
| 20260906065604 | 77 | 271 | 1.0 | 1.0 | 0.00 | 0.00 | 0.00 | 41 | 1013.1 |
| 20260906065104 | 77 | 271 | 1.0 | 2.0 | 0.00 | 0.00 | 0.00 | 40 | 1012.9 |
| 20260906064604 | 77 | 271 | 1.0 | 2.0 | 0.00 | 0.00 | 0.00 | 41 | 1012.9 |
| 20260906064104 | 77 | 271 | 1.0 | 2.0 | 0.00 | 0.00 | 0.00 | 40 | 1013.0 |
| 20260906063603 | 77 | 271 | 0.0 | 2.0 | 0.00 | 0.00 | 0.00 | 40 | 1013.1 |
| 20260906063104 | 78 | 271 | 0.0 | 1.0 | 0.00 | 0.00 | 0.00 | 40 | 1013.2 |
| 20260906062603 | 77 | 271 | 0.0 | 0.0 | 0.00 | 0.00 | 0.00 | 40 | 1013.3 |
| 20260906061104 | 77 | 271 | 0.0 | 1.0 | 0.00 | 0.00 | 0.00 | 42 | 1013.3 |
| 20260906060604 | 77 | 271 | 0.0 | 0.0 | 0.00 | 0.00 | 0.00 | 41 | 1013.3 |
| 20260906060108 | 77 | 271 | 0.0 | 1.0 | 0.00 | 0.00 | 0.00 | 41 | 1013.3 |
| 20260906055604 | 77 | 271 | 0.0 | 1.0 | 0.00 | 0.00 | 0.00 | 41 | 1013.3 |
| 20260906055104 | 77 | 271 | 0.0 | 1.0 | 0.00 | 0.00 | 0.00 | 41 | 1013.3 |
| 20260906054604 | 77 | 271 | 0.0 | 0.0 | 0.00 | 0.00 | 0.00 | 41 | 1013.3 |
| 20260906054105 | 77 | 271 | 0.0 | 1.0 | 0.00 | 0.00 | 0.00 | 41 | 1013.3 |
| 20260906053104 | 78 | 271 | 0.0 | 0.0 | 0.00 | 0.00 | 0.00 | 40 | 1013.3 |
| 20260906052604 | 78 | 271 | 0.0 | 1.0 | 0.00 | 0.00 | 0.00 | 39 | 1013.3 |
| 20260906052105 | 78 | 271 | 0.0 | 1.0 | 0.00 | 0.00 | 0.00 | 38 | 1013.2 |
| 20260906051603 | 78 | 271 | 0.0 | 1.0 | 0.00 | 0.00 | 0.00 | 39 | 1013.3 |
| 20260906051104 | 78 | 271 | 0.0 | 0.0 | 0.00 | 0.00 | 0.00 | 39 | 1013.3 |
| 20260906050604 | 78 | 271 | 0.0 | 0.0 | 0.00 | 0.00 | 0.00 | 38 | 1013.3 |
| 20260906045604 | 78 | 271 | 0.0 | 1.0 | 0.00 | 0.00 | 0.00 | 38 | 1013.4 |
| 20260906045104 | 78 | 271 | 0.0 | 1.0 | 0.00 | 0.00 | 0.00 | 39 | 1013.3 |
| 20260906044604 | 78 | 271 | 0.0 | 1.0 | 0.00 | 0.00 | 0.00 | 40 | 1013.3 |
| 20260906044104 | 78 | 271 | 0.0 | 1.0 | 0.00 | 0.00 | 0.00 | 40 | 1013.3 |
| 20260906042604 | 78 | 271 | 0.0 | 1.0 | 0.00 | 0.00 | 0.00 | 40 | 1013.3 |
| 20260906042106 | 79 | 271 | 0.0 | 1.0 | 0.00 | 0.00 | 0.00 | 40 | 1013.3 |
| 20260906041604 | 79 | 271 | 0.0 | 1.0 | 0.00 | 0.00 | 0.00 | 40 | 1013.4 |
| 20260906041103 | 79 | 271 | 0.0 | 1.0 | 0.00 | 0.00 | 0.00 | 39 | 1013.3 |
| 20260906040604 | 79 | 271 | 0.0 | 1.0 | 0.00 | 0.00 | 0.00 | 39 | 1013.4 |
| 20260906040105 | 78 | 271 | 0.0 | 0.0 | 0.00 | 0.00 | 0.00 | 38 | 1013.5 |
| 20260906035604 | 79 | 271 | 0.0 | 0.0 | 0.00 | 0.00 | 0.00 | 39 | 1013.4 |
| 20260906035103 | 79 | 271 | 0.0 | 1.0 | 0.00 | 0.00 | 0.00 | 38 | 1013.4 |
| 20260906034604 | 79 | 271 | 0.0 | 3.0 | 0.00 | 0.00 | 0.00 | 38 | 1013.4 |
| 20260906033104 | 80 | 270 | 2.0 | 7.0 | 0.00 | 0.00 | 0.00 | 38 | 1013.3 |
| 20260906032603 | 80 | 272 | 5.0 | 7.0 | 0.00 | 0.00 | 0.00 | 37 | 1013.2 |
| 20260906032104 | 81 | 276 | 3.0 | 5.0 | 0.00 | 0.00 | 0.00 | 37 | 1013.2 |
| 20260906031604 | 82 | 272 | 2.0 | 5.0 | 0.00 | 0.00 | 0.00 | 36 | 1013.3 |
| 20260906031106 | 82 | 221 | 0.0 | 3.0 | 0.00 | 0.00 | 0.00 | 36 | 1013.1 |
| 20260906030604 | 82 | 195 | 0.0 | 3.0 | 0.00 | 0.00 | 0.00 | 35 | 1013.2 |
| 20260906030109 | 82 | 178 | 1.0 | 2.0 | 0.00 | 0.00 | 0.00 | 35 | 1013.0 |
| 20260906024604 | 82 | 209 | 0.0 | 2.0 | 0.00 | 0.00 | 0.00 | 34 | 1012.9 |
| 20260906024104 | 82 | 209 | 1.0 | 3.0 | 0.00 | 0.00 | 0.00 | 34 | 1012.9 |
| 20260906023604 | 83 | 209 | 1.0 | 3.0 | 0.00 | 0.00 | 0.00 | 34 | 1012.9 |
| 20260906023104 | 83 | 209 | 0.0 | 3.0 | 0.00 | 0.00 | 0.00 | 34 | 1012.9 |
| 20260906022604 | 83 | 209 | 1.0 | 3.0 | 0.00 | 0.00 | 0.00 | 34 | 1012.8 |
| 20260906022104 | 83 | 209 | 0.0 | 5.0 | 0.00 | 0.00 | 0.00 | 33 | 1012.7 |
| 20260906021604 | 84 | 209 | 1.0 | 5.0 | 0.00 | 0.00 | 0.00 | 33 | 1012.5 |
| 20260906021106 | 84 | 221 | 1.0 | 5.0 | 0.00 | 0.00 | 0.00 | 33 | 1012.5 |
| 20260906020604 | 85 | 248 | 1.0 | 5.0 | 0.00 | 0.00 | 0.00 | 33 | 1012.5 |
| 20260906020104 | 85 | 241 | 2.0 | 6.0 | 0.00 | 0.00 | 0.00 | 31 | 1012.4 |
| 20260906015604 | 85 | 225 | 2.0 | 8.0 | 0.00 | 0.00 | 0.00 | 31 | 1012.4 |
| 20260906014603 | 86 | 245 | 3.0 | 8.0 | 0.00 | 0.00 | 0.00 | 31 | 1012.4 |
| 20260906014103 | 87 | 249 | 5.0 | 8.0 | 0.00 | 0.00 | 0.00 | 31 | 1012.4 |
| 20260906013604 | 87 | 240 | 4.0 | 8.0 | 0.00 | 0.00 | 0.00 | 31 | 1012.4 |
| 20260906012604 | 87 | 238 | 5.0 | 7.0 | 0.00 | 0.00 | 0.00 | 30 | 1012.4 |
| 20260906012104 | 87 | 222 | 3.0 | 8.0 | 0.00 | 0.00 | 0.00 | 31 | 1012.5 |
| 20260906011604 | 87 | 239 | 5.0 | 8.0 | 0.00 | 0.00 | 0.00 | 30 | 1012.4 |
| 20260906011106 | 87 | 246 | 4.0 | 8.0 | 0.00 | 0.00 | 0.00 | 31 | 1012.4 |
| 20260906010604 | 87 | 258 | 5.0 | 8.0 | 0.00 | 0.00 | 0.00 | 31 | 1012.5 |
| 20260906010107 | 88 | 246 | 3.0 | 8.0 | 0.00 | 0.00 | 0.00 | 31 | 1012.4 |
| 20260906005604 | 88 | 265 | 5.0 | 7.0 | 0.00 | 0.00 | 0.00 | 29 | 1012.5 |
| 20260906005103 | 88 | 194 | 4.0 | 6.0 | 0.00 | 0.00 | 0.00 | 29 | 1012.5 |
| 20260906004604 | 87 | 229 | 3.0 | 8.0 | 0.00 | 0.00 | 0.00 | 30 | 1012.5 |
| 20260906004104 | 87 | 267 | 5.0 | 8.0 | 0.00 | 0.00 | 0.00 | 31 | 1012.5 |
| 20260906003104 | 87 | 228 | 5.0 | 8.0 | 0.00 | 0.00 | 0.00 | 31 | 1012.4 |
| 20260906002604 | 87 | 262 | 4.0 | 7.0 | 0.00 | 0.00 | 0.00 | 32 | 1012.4 |
| 20260906002105 | 86 | 229 | 3.0 | 8.0 | 0.00 | 0.00 | 0.00 | 32 | 1012.4 |
| 20260906001603 | 86 | 278 | 5.0 | 8.0 | 0.00 | 0.00 | 0.00 | 33 | 1012.4 |
| 20260906000603 | 86 | 280 | 5.0 | 10.0 | 0.00 | 0.00 | 0.00 | 31 | 1012.4 |
| 20260905235604 | 87 | 255 | 5.0 | 8.0 | 0.00 | 0.00 | 0.00 | 32 | 1012.4 |
| 20260905235104 | 87 | 287 | 5.0 | 9.0 | 0.00 | 0.00 | 0.00 | 33 | 1012.4 |
| 20260905234104 | 89 | 260 | 4.0 | 9.0 | 0.00 | 0.00 | 0.00 | 30 | 1012.4 |
| 20260905233604 | 89 | 261 | 2.0 | 10.0 | 0.00 | 0.00 | 0.00 | 29 | 1012.4 |
| 20260905233103 | 89 | 267 | 5.0 | 10.0 | 0.00 | 0.00 | 0.00 | 29 | 1012.4 |
| 20260905232604 | 89 | 220 | 3.0 | 10.0 | 0.00 | 0.00 | 0.00 | 29 | 1012.4 |
| 20260905232104 | 89 | 225 | 5.0 | 13.0 | 0.00 | 0.00 | 0.00 | 29 | 1012.4 |
| 20260905231104 | 88 | 165 | 4.0 | 10.0 | 0.00 | 0.00 | 0.00 | 30 | 1012.5 |
| 20260905230604 | 88 | 226 | 4.0 | 10.0 | 0.00 | 0.00 | 0.00 | 30 | 1012.5 |
| 20260905230107 | 89 | 244 | 5.0 | 8.0 | 0.00 | 0.00 | 0.00 | 30 | 1012.5 |
| 20260905225104 | 89 | 252 | 3.0 | 8.0 | 0.00 | 0.00 | 0.00 | 29 | 1012.6 |
| 20260905224604 | 89 | 251 | 5.0 | 8.0 | 0.00 | 0.00 | 0.00 | 29 | 1012.6 |
| 20260905223604 | 89 | 254 | 6.0 | 10.0 | 0.00 | 0.00 | 0.00 | 27 | 1012.7 |
| 20260905223104 | 89 | 249 | 5.0 | 13.0 | 0.00 | 0.00 | 0.00 | 28 | 1012.7 |
| 20260905222104 | 91 | 259 | 5.0 | 12.0 | 0.00 | 0.00 | 0.00 | 26 | 1012.8 |
| 20260905221603 | 91 | 269 | 6.0 | 12.0 | 0.00 | 0.00 | 0.00 | 26 | 1012.9 |
| 20260905221103 | 90 | 240 | 6.0 | 12.0 | 0.00 | 0.00 | 0.00 | 28 | 1012.9 |
| 20260905220604 | 89 | 257 | 4.0 | 13.0 | 0.00 | 0.00 | 0.00 | 27 | 1013.0 |
| 20260905220113 | 89 | 185 | 3.0 | 13.0 | 0.00 | 0.00 | 0.00 | 27 | 1013.1 |
| 20260905215603 | 89 | 282 | 5.0 | 12.0 | 0.00 | 0.00 | 0.00 | 26 | 1013.1 |
| 20260905215103 | 89 | 273 | 5.0 | 12.0 | 0.00 | 0.00 | 0.00 | 26 | 1013.1 |
| 20260905214604 | 89 | 257 | 6.0 | 10.0 | 0.00 | 0.00 | 0.00 | 25 | 1013.2 |
| 20260905213604 | 90 | 261 | 5.0 | 10.0 | 0.00 | 0.00 | 0.00 | 25 | 1013.3 |
| 20260905213104 | 90 | 260 | 5.0 | 10.0 | 0.00 | 0.00 | 0.00 | 25 | 1013.4 |
| 20260905212606 | 89 | 262 | 7.0 | 12.0 | 0.00 | 0.00 | 0.00 | 25 | 1013.4 |
| 20260905212105 | 90 | 272 | 6.0 | 12.0 | 0.00 | 0.00 | 0.00 | 25 | 1013.4 |
| 20260905211603 | 90 | 271 | 7.0 | 12.0 | 0.00 | 0.00 | 0.00 | 24 | 1013.4 |
| 20260905211104 | 91 | 276 | 6.0 | 12.0 | 0.00 | 0.00 | 0.00 | 25 | 1013.4 |
| 20260905210604 | 91 | 302 | 4.0 | 12.0 | 0.00 | 0.00 | 0.00 | 25 | 1013.5 |
| 20260905210109 | 91 | 264 | 6.0 | 13.0 | 0.00 | 0.00 | 0.00 | 25 | 1013.5 |
| 20260905205604 | 91 | 275 | 7.0 | 13.0 | 0.00 | 0.00 | 0.00 | 25 | 1013.4 |
| 20260905205104 | 91 | 254 | 6.0 | 13.0 | 0.00 | 0.00 | 0.00 | 22 | 1013.6 |
| 20260905204604 | 90 | 267 | 9.0 | 13.0 | 0.00 | 0.00 | 0.00 | 24 | 1013.6 |
| 20260905204103 | 90 | 290 | 7.0 | 9.0 | 0.00 | 0.00 | 0.00 | 22 | 1013.7 |
| 20260905203104 | 89 | 252 | 5.0 | 14.0 | 0.00 | 0.00 | 0.00 | 22 | 1013.7 |
| 20260905202603 | 89 | 280 | 7.0 | 12.0 | 0.00 | 0.00 | 0.00 | 23 | 1013.7 |
| 20260905202103 | 89 | 267 | 6.0 | 12.0 | 0.00 | 0.00 | 0.00 | 22 | 1013.7 |
| 20260905201603 | 89 | 270 | 5.0 | 12.0 | 0.00 | 0.00 | 0.00 | 23 | 1013.7 |
| 20260905200604 | 89 | 272 | 6.0 | 10.0 | 0.00 | 0.00 | 0.00 | 21 | 1013.8 |
| 20260905200111 | 89 | 273 | 6.0 | 10.0 | 0.00 | 0.00 | 0.00 | 20 | 1013.8 |
| 20260905195604 | 88 | 282 | 4.0 | 12.0 | 0.00 | 0.00 | 0.00 | 19 | 1013.8 |
| 20260905195104 | 88 | 273 | 6.0 | 12.0 | 0.00 | 0.00 | 0.00 | 21 | 1014.0 |
| 20260905194604 | 87 | 291 | 4.0 | 12.0 | 0.00 | 0.00 | 0.00 | 20 | 1014.0 |
| 20260905194104 | 87 | 291 | 5.0 | 12.0 | 0.00 | 0.00 | 0.00 | 22 | 1014.1 |
| 20260905193603 | 88 | 274 | 6.0 | 10.0 | 0.00 | 0.00 | 0.00 | 19 | 1014.2 |
| 20260905192604 | 88 | 301 | 6.0 | 8.0 | 0.00 | 0.00 | 0.00 | 21 | 1014.3 |
| 20260905191604 | 87 | 259 | 5.0 | 7.0 | 0.00 | 0.00 | 0.00 | 21 | 1014.3 |
| 20260905191104 | 87 | 292 | 3.0 | 8.0 | 0.00 | 0.00 | 0.00 | 21 | 1014.4 |
| 20260905190107 | 87 | 308 | 5.0 | 9.0 | 0.00 | 0.00 | 0.00 | 20 | 1014.5 |
| 20260905185104 | 86 | 272 | 5.0 | 8.0 | 0.00 | 0.00 | 0.00 | 21 | 1014.6 |
| 20260905184604 | 86 | 325 | 2.0 | 7.0 | 0.00 | 0.00 | 0.00 | 20 | 1014.6 |
| 20260905184105 | 85 | 290 | 3.0 | 7.0 | 0.00 | 0.00 | 0.00 | 21 | 1014.7 |
| 20260905183604 | 85 | 286 | 5.0 | 7.0 | 0.00 | 0.00 | 0.00 | 21 | 1014.7 |
| 20260905183104 | 85 | 338 | 3.0 | 6.0 | 0.00 | 0.00 | 0.00 | 21 | 1014.8 |
| 20260905182604 | 84 | 275 | 3.0 | 6.0 | 0.00 | 0.00 | 0.00 | 21 | 1014.9 |
| 20260905181604 | 83 | 331 | 3.0 | 7.0 | 0.00 | 0.00 | 0.00 | 21 | 1015.0 |
| 20260905181104 | 82 | 319 | 2.0 | 7.0 | 0.00 | 0.00 | 0.00 | 24 | 1015.0 |
| 20260905180104 | 81 | 290 | 2.0 | 7.0 | 0.00 | 0.00 | 0.00 | 24 | 1015.0 |
| 20260905175604 | 81 | 303 | 4.0 | 6.0 | 0.00 | 0.00 | 0.00 | 23 | 1015.0 |
| 20260905175104 | 81 | 304 | 2.0 | 7.0 | 0.00 | 0.00 | 0.00 | 24 | 1015.0 |
| 20260905174104 | 80 | 280 | 2.0 | 6.0 | 0.00 | 0.00 | 0.00 | 23 | 1014.7 |
| 20260905173604 | 80 | 265 | 2.0 | 6.0 | 0.00 | 0.00 | 0.00 | 24 | 1014.7 |
| 20260905173104 | 79 | 301 | 3.0 | 6.0 | 0.00 | 0.00 | 0.00 | 25 | 1014.6 |
| 20260905172603 | 78 | 290 | 3.0 | 5.0 | 0.00 | 0.00 | 0.00 | 28 | 1014.6 |
| 20260905172103 | 78 | 291 | 3.0 | 6.0 | 0.00 | 0.00 | 0.00 | 26 | 1014.7 |
| 20260905171603 | 78 | 291 | 3.0 | 6.0 | 0.00 | 0.00 | 0.00 | 26 | 1014.6 |
| 20260905171107 | 78 | 301 | 2.0 | 5.0 | 0.00 | 0.00 | 0.00 | 26 | 1014.6 |
| 20260905170604 | 78 | 302 | 3.0 | 5.0 | 0.00 | 0.00 | 0.00 | 26 | 1014.7 |
| 20260905170108 | 77 | 302 | 2.0 | 5.0 | 0.00 | 0.00 | 0.00 | 26 | 1014.7 |
| 20260905165604 | 77 | 306 | 2.0 | 5.0 | 0.00 | 0.00 | 0.00 | 26 | 1014.7 |
| 20260905165104 | 76 | 307 | 3.0 | 5.0 | 0.00 | 0.00 | 0.00 | 26 | 1014.7 |
| 20260905164604 | 76 | 306 | 3.0 | 5.0 | 0.00 | 0.00 | 0.00 | 27 | 1014.7 |
| 20260905163604 | 75 | 296 | 2.0 | 5.0 | 0.00 | 0.00 | 0.00 | 29 | 1014.6 |
| 20260905163104 | 75 | 297 | 2.0 | 5.0 | 0.00 | 0.00 | 0.00 | 29 | 1014.6 |
| 20260905161103 | 73 | 314 | 2.0 | 3.0 | 0.00 | 0.00 | 0.00 | 32 | 1014.6 |
| 20260905160603 | 72 | 321 | 3.0 | 3.0 | 0.00 | 0.00 | 0.00 | 31 | 1014.6 |
| 20260905160110 | 72 | 34 | 1.0 | 3.0 | 0.00 | 0.00 | 0.00 | 32 | 1014.5 |
| 20260905155604 | 72 | 34 | 2.0 | 3.0 | 0.00 | 0.00 | 0.00 | 31 | 1014.5 |
| 20260905155104 | 72 | 34 | 1.0 | 3.0 | 0.00 | 0.00 | 0.00 | 32 | 1014.5 |
| 20260905154603 | 72 | 34 | 0.0 | 2.0 | 0.00 | 0.00 | 0.00 | 34 | 1014.5 |
| 20260905154104 | 71 | 34 | 0.0 | 3.0 | 0.00 | 0.00 | 0.00 | 35 | 1014.5 |
| 20260905153604 | 70 | 34 | 1.0 | 3.0 | 0.00 | 0.00 | 0.00 | 36 | 1014.4 |
| 20260905153104 | 70 | 34 | 1.0 | 2.0 | 0.00 | 0.00 | 0.00 | 32 | 1014.4 |
| 20260905152103 | 71 | 34 | 0.0 | 1.0 | 0.00 | 0.00 | 0.00 | 37 | 1014.2 |
| 20260905150604 | 71 | 34 | 0.0 | 1.0 | 0.00 | 0.00 | 0.00 | 39 | 1014.2 |
| 20260905150109 | 70 | 34 | 0.0 | 1.0 | 0.00 | 0.00 | 0.00 | 31 | 1014.2 |
| 20260905145604 | 69 | 34 | 0.0 | 2.0 | 0.00 | 0.00 | 0.00 | 32 | 1014.2 |
| 20260905145104 | 68 | 34 | 0.0 | 2.0 | 0.00 | 0.00 | 0.00 | 32 | 1014.2 |
| 20260905144104 | 66 | 34 | 1.0 | 2.0 | 0.00 | 0.00 | 0.00 | 32 | 1014.1 |
| 20260905143604 | 65 | 34 | 2.0 | 2.0 | 0.00 | 0.00 | 0.00 | 32 | 1014.1 |
| 20260905143104 | 65 | 34 | 1.0 | 3.0 | 0.00 | 0.00 | 0.00 | 33 | 1014.0 |
| 20260905142604 | 64 | 34 | 1.0 | 3.0 | 0.00 | 0.00 | 0.00 | 36 | 1013.9 |
| 20260905142104 | 63 | 34 | 1.0 | 2.0 | 0.00 | 0.00 | 0.00 | 37 | 1013.9 |
| 20260905141604 | 63 | 34 | 1.0 | 2.0 | 0.00 | 0.00 | 0.00 | 37 | 1013.8 |